Osage, IA

10:27 PM CDT on July 24, 2016 (GMT -0500)
KIAOSAGE1 | | Change Station

Elev 1173 ft 43.28 °N, 92.82 °W | Updated 149 days ago

Clear
Clear
66 °F
Feels Like 66 °F
N
4
Wind Variable Wind from WNW
Gusts mph

Today
High -- | Low -- °F
--% Chance of Precip.
Yesterday
High -- | Low -- °F
Precip. -- in
Pressure 30.01 in
Visibility 10.0 miles
Clouds Few 15000 ft
Mostly Cloudy 17000 ft
Mostly Cloudy 19000 ft
Dew Point 63 °F
Humidity 91%
Rainfall in
Snow Depth Not available.
5:53 AM 8:41 PM
Waning Gibbous, 70% visible
METAR KCCY 250315Z AUTO 30004KT 10SM FEW150 BKN170 BKN190 21/20 A3001 RMK AO2
Pressure 30.01 in
Visibility 10.0 miles
Clouds Few 15000 ft
Mostly Cloudy 17000 ft
Mostly Cloudy 19000 ft
Dew Point 63 °F
Humidity 91%
Rainfall in
Snow Depth Not available.
5:53 AM 8:41 PM
Waning Gibbous, 70% visible
METAR KCCY 250315Z AUTO 30004KT 10SM FEW150 BKN170 BKN190 21/20 A3001 RMK AO2

10-Day Weather Forecast

Almanac

Astronomy

Jul. 24, 2016 Rise Set
Actual Time
Civil Twilight
Nautical Twilight
Astronomical Twilight
Moon
Length of Visible Light
Length of Day
Tomorrow will be .
, % of the Moon is Illuminated

Today's Extremes

State Highs State Lows

Community

WunderPhotos

Upload Photos

1,927,256 photos uploaded!

WunderBlog® & News

Nearby

Air Quality

  Air Quality AQ Index Pollutant
Not available.

Snow Depth

Station Depth Elevation

Earthquake Activity

City Distance Mag. Time & Date
Minimum magnitude displayed is 2.5.

Coastal Water Temperatures

Place Temperature

Stations

Nearby Weather Stations

Station Location Temp. Windchill Dew Point Humidity Wind Precip. Elev Updated Type
                   

Watches & Warnings

There are currently no watches in effect.